createdAt,value
2022-11-20T00:01:09.599Z,12.30
2022-11-20T00:03:36.257Z,8.87
2022-11-20T00:06:08.140Z,8.70
2022-11-20T00:08:34.823Z,8.53
2022-11-20T00:11:16.049Z,6.63
2022-11-20T00:13:45.412Z,6.03
2022-11-20T00:16:13.731Z,6.53
2022-11-20T00:18:40.524Z,6.93
2022-11-20T00:21:11.938Z,7.47
2022-11-20T00:23:38.434Z,8.00
2022-11-20T00:26:06.492Z,7.20
2022-11-20T00:28:33.081Z,9.77
2022-11-20T00:31:12.151Z,9.17
2022-11-20T00:33:40.133Z,10.07
2022-11-20T00:36:08.867Z,9.53
2022-11-20T00:38:35.968Z,12.33
2022-11-20T00:41:05.370Z,13.37
2022-11-20T00:43:31.876Z,11.47
2022-11-20T00:46:03.254Z,12.77
2022-11-20T00:48:29.809Z,12.63
2022-11-20T00:50:57.016Z,12.43
2022-11-20T00:53:23.891Z,12.63
2022-11-20T00:55:55.190Z,10.90
2022-11-20T00:58:23.015Z,10.13
2022-11-20T01:00:49.662Z,10.97
2022-11-20T01:03:17.330Z,10.67
2022-11-20T01:05:43.967Z,10.13
2022-11-20T01:08:10.416Z,10.07
2022-11-20T01:10:36.724Z,10.87
2022-11-20T01:13:03.239Z,10.27
2022-11-20T01:15:29.551Z,10.70
2022-11-20T01:17:55.915Z,10.07
2022-11-20T01:20:22.267Z,10.53
2022-11-20T01:22:48.570Z,10.27
2022-11-20T01:25:15.144Z,10.60
2022-11-20T01:27:41.449Z,10.70
2022-11-20T01:30:08.623Z,12.93
2022-11-20T01:32:35.111Z,10.70
2022-11-20T01:35:01.499Z,11.97
2022-11-20T01:37:27.798Z,10.87
2022-11-20T01:39:54.091Z,10.40
2022-11-20T01:42:20.494Z,10.30
2022-11-20T01:44:59.983Z,11.43
2022-11-20T01:47:38.044Z,9.90
2022-11-20T01:50:29.261Z,9.70
2022-11-20T01:52:59.983Z,10.00
2022-11-20T01:55:33.346Z,10.60
2022-11-20T01:58:01.207Z,9.77
2022-11-20T02:00:27.741Z,10.17
2022-11-20T02:03:16.655Z,10.97
2022-11-20T02:05:48.530Z,9.20
2022-11-20T02:08:14.908Z,10.27
2022-11-20T02:10:41.289Z,9.73
2022-11-20T02:13:08.416Z,9.03
2022-11-20T02:15:35.053Z,9.77
2022-11-20T02:18:01.969Z,9.90
2022-11-20T02:20:28.622Z,10.30
2022-11-20T02:23:01.150Z,10.00
2022-11-20T02:25:30.960Z,10.33
2022-11-20T02:27:57.734Z,8.47
2022-11-20T02:30:24.491Z,8.57
2022-11-20T02:32:50.817Z,10.10
2022-11-20T02:35:41.507Z,8.93
2022-11-20T02:38:07.843Z,9.53
2022-11-20T02:40:34.243Z,9.20
2022-11-20T02:43:00.594Z,9.37
2022-11-20T02:45:26.996Z,8.73
2022-11-20T02:47:54.116Z,9.67
2022-11-20T02:50:20.556Z,8.83
2022-11-20T02:52:47.371Z,9.40
2022-11-20T02:55:13.725Z,9.40
2022-11-20T02:57:40.275Z,9.50
2022-11-20T03:00:07.716Z,8.77
2022-11-20T03:02:34.501Z,8.65
2022-11-20T03:05:00.949Z,8.07
2022-11-20T03:07:27.555Z,7.30
2022-11-20T03:09:53.955Z,8.43
2022-11-20T03:12:20.428Z,9.10
2022-11-20T03:14:52.583Z,8.60
2022-11-20T03:17:19.544Z,8.43
2022-11-20T03:19:45.899Z,8.52
2022-11-20T03:22:12.200Z,8.03
2022-11-20T03:24:38.790Z,9.40
2022-11-20T03:27:05.372Z,8.10
2022-11-20T03:29:31.761Z,8.93
2022-11-20T03:31:58.100Z,8.40
2022-11-20T03:34:24.778Z,8.47
2022-11-20T03:36:51.157Z,8.80
2022-11-20T03:39:17.480Z,8.73
2022-11-20T03:41:43.808Z,8.20
2022-11-20T03:44:12.328Z,9.57
2022-11-20T03:46:39.196Z,7.65
2022-11-20T03:49:05.732Z,8.63
2022-11-20T03:51:34.265Z,9.13
2022-11-20T03:54:05.485Z,7.93
2022-11-20T03:56:34.367Z,8.68
2022-11-20T03:59:00.955Z,8.97
2022-11-20T04:01:36.242Z,8.25
2022-11-20T04:04:03.128Z,8.63
2022-11-20T04:06:39.034Z,8.57
2022-11-20T04:09:06.452Z,9.93
2022-11-20T04:11:35.081Z,8.43
2022-11-20T04:14:04.747Z,9.68
2022-11-20T04:16:33.622Z,10.48
2022-11-20T04:19:02.497Z,11.00
2022-11-20T04:21:29.517Z,11.10
2022-11-20T04:23:56.313Z,9.82
2022-11-20T04:26:25.001Z,9.30
2022-11-20T04:28:51.615Z,9.27
2022-11-20T04:31:21.133Z,8.73
2022-11-20T04:33:48.083Z,8.05
2022-11-20T04:36:22.812Z,9.50
2022-11-20T04:38:57.557Z,9.90
2022-11-20T04:41:26.641Z,9.63
2022-11-20T04:43:55.789Z,8.52
2022-11-20T04:46:22.252Z,9.05
2022-11-20T04:48:48.872Z,8.90
2022-11-20T04:51:15.431Z,9.68
2022-11-20T04:53:42.793Z,9.48
2022-11-20T04:56:11.078Z,9.40
2022-11-20T04:58:37.928Z,9.52
2022-11-20T05:01:19.724Z,9.70
2022-11-20T05:03:46.497Z,8.65
2022-11-20T05:06:15.936Z,7.60
2022-11-20T05:08:42.439Z,10.50
2022-11-20T05:11:14.060Z,9.68
2022-11-20T05:13:40.924Z,8.65
2022-11-20T05:16:10.159Z,8.98
2022-11-20T05:18:38.142Z,8.82
2022-11-20T05:21:05.455Z,7.47
2022-11-20T05:23:33.338Z,9.38
2022-11-20T05:26:00.610Z,8.75
2022-11-20T05:28:29.460Z,9.90
2022-11-20T05:30:56.057Z,9.13
2022-11-20T05:33:23.043Z,7.72
2022-11-20T05:35:50.327Z,8.30
2022-11-20T05:38:17.142Z,8.63
2022-11-20T05:40:44.050Z,8.85
2022-11-20T05:43:10.484Z,9.18
2022-11-20T05:45:37.157Z,9.25
2022-11-20T05:48:03.971Z,9.35
2022-11-20T05:50:30.973Z,9.40
2022-11-20T05:53:00.608Z,10.07
2022-11-20T05:55:27.870Z,8.85
2022-11-20T05:57:55.321Z,10.10
2022-11-20T06:00:21.882Z,9.30
2022-11-20T06:02:48.448Z,10.02
2022-11-20T06:05:14.904Z,9.13
2022-11-20T06:07:41.507Z,9.98
2022-11-20T06:10:08.131Z,10.45
2022-11-20T06:12:34.522Z,9.05
2022-11-20T06:15:00.827Z,10.65
2022-11-20T06:17:27.390Z,11.45
2022-11-20T06:19:53.778Z,10.68
2022-11-20T06:22:20.128Z,10.77
2022-11-20T06:24:46.464Z,9.93
2022-11-20T06:27:12.874Z,9.68
2022-11-20T06:29:39.426Z,10.25
2022-11-20T06:32:05.932Z,10.65
2022-11-20T06:34:32.257Z,10.40
2022-11-20T06:36:58.681Z,9.68
2022-11-20T06:39:25.105Z,11.25
2022-11-20T06:41:55.807Z,10.23
2022-11-20T06:44:25.350Z,10.82
2022-11-20T06:46:51.720Z,9.77
2022-11-20T06:49:18.087Z,11.48
2022-11-20T06:51:44.408Z,10.82
2022-11-20T06:54:10.986Z,10.45
2022-11-20T06:56:37.313Z,10.40
2022-11-20T06:59:07.601Z,10.88
2022-11-20T07:01:34.254Z,11.00
2022-11-20T07:04:00.572Z,10.77
2022-11-20T07:06:27.123Z,11.57
2022-11-20T07:08:53.411Z,10.73
2022-11-20T07:11:20.087Z,10.98
2022-11-20T07:13:46.471Z,11.23
2022-11-20T07:16:12.793Z,9.90
2022-11-20T07:18:39.367Z,9.77
2022-11-20T07:21:08.398Z,11.48
2022-11-20T07:23:35.098Z,9.80
2022-11-20T07:26:09.120Z,10.00
2022-11-20T07:28:36.103Z,10.20
2022-11-20T07:31:02.640Z,10.00
2022-11-20T07:33:29.425Z,11.63
2022-11-20T07:35:55.778Z,9.82
2022-11-20T07:38:22.121Z,9.48
2022-11-20T07:40:48.580Z,10.85
2022-11-20T07:43:14.963Z,10.93
2022-11-20T07:45:41.274Z,10.82
2022-11-20T07:48:07.666Z,10.20
2022-11-20T07:50:33.978Z,10.65
2022-11-20T07:53:05.469Z,10.15
2022-11-20T07:55:32.309Z,10.02
2022-11-20T07:57:59.063Z,11.18
2022-11-20T08:00:27.371Z,10.05
2022-11-20T08:02:54.014Z,11.00
2022-11-20T08:05:20.355Z,10.45
2022-11-20T08:07:46.821Z,12.23
2022-11-20T08:10:15.251Z,11.35
2022-11-20T08:12:46.841Z,11.27
2022-11-20T08:15:13.572Z,10.82
2022-11-20T08:17:40.180Z,11.82
2022-11-20T08:20:07.059Z,11.90
2022-11-20T08:22:34.369Z,12.15
2022-11-20T08:25:00.683Z,11.38
2022-11-20T08:27:27.174Z,10.63
2022-11-20T08:29:53.559Z,12.05
2022-11-20T08:32:19.876Z,9.45
2022-11-20T08:34:46.264Z,11.55
2022-11-20T08:37:13.033Z,11.70
2022-11-20T08:39:39.658Z,11.45
2022-11-20T08:42:09.380Z,11.27
2022-11-20T08:44:35.782Z,11.75
2022-11-20T08:47:02.354Z,11.60
2022-11-20T08:49:28.667Z,10.70
2022-11-20T08:51:55.069Z,11.88
2022-11-20T08:54:21.717Z,12.13
2022-11-20T08:56:48.349Z,12.50
2022-11-20T09:02:01.116Z,12.68
2022-11-20T09:04:27.479Z,14.15
2022-11-20T09:06:53.913Z,15.77
2022-11-20T09:09:20.743Z,12.05
2022-11-20T09:11:47.399Z,12.48
2022-11-20T09:14:13.783Z,12.02
2022-11-20T09:16:40.112Z,11.93
2022-11-20T09:19:34.109Z,11.25
2022-11-20T09:21:58.271Z,11.98
2022-11-20T09:24:26.600Z,10.93
2022-11-20T09:26:52.977Z,10.10
2022-11-20T09:29:19.617Z,10.80
2022-11-20T09:31:46.433Z,9.00
2022-11-20T09:34:12.747Z,11.00
2022-11-20T09:36:39.075Z,10.90
2022-11-20T09:39:05.480Z,9.15
2022-11-20T09:42:16.450Z,10.30
2022-11-20T09:45:04.289Z,10.23
2022-11-20T09:47:54.264Z,8.68
2022-11-20T09:50:35.804Z,8.00
2022-11-20T09:53:24.590Z,10.68
2022-11-20T09:55:51.537Z,7.40
2022-11-20T09:58:32.277Z,9.40
2022-11-20T10:01:14.914Z,9.98
2022-11-20T10:04:10.822Z,9.80
2022-11-20T10:07:31.411Z,9.20
2022-11-20T10:09:57.130Z,9.45
2022-11-20T10:12:36.156Z,9.93
2022-11-20T10:15:21.024Z,8.40
2022-11-20T10:18:09.489Z,8.17
2022-11-20T10:20:42.001Z,8.88
2022-11-20T10:23:25.569Z,9.50
2022-11-20T10:26:34.435Z,10.77
2022-11-20T10:29:19.780Z,14.40
2022-11-20T10:32:01.108Z,16.02
2022-11-20T10:34:42.588Z,27.70
2022-11-20T10:37:31.619Z,30.95
2022-11-20T10:40:20.344Z,42.63
2022-11-20T10:42:57.925Z,22.83
2022-11-20T10:45:27.348Z,15.95
2022-11-20T10:48:28.938Z,11.48
2022-11-20T10:51:16.550Z,17.20
2022-11-20T10:54:19.778Z,13.35
2022-11-20T10:56:52.308Z,18.08
2022-11-20T10:59:54.686Z,18.92
2022-11-20T11:02:26.070Z,12.65
2022-11-20T11:04:55.701Z,11.02
2022-11-20T11:07:26.943Z,12.35
2022-11-20T11:09:55.405Z,20.85
2022-11-20T11:12:23.996Z,18.33
2022-11-20T11:14:52.884Z,12.65
2022-11-20T11:17:21.373Z,10.63
2022-11-20T11:20:01.498Z,9.30
2022-11-20T11:22:30.102Z,10.98
2022-11-20T11:24:56.594Z,11.68
2022-11-20T11:27:23.143Z,10.55
2022-11-20T11:29:49.504Z,11.20
2022-11-20T11:32:18.110Z,10.50
2022-11-20T11:34:45.001Z,9.57
2022-11-20T11:37:18.240Z,8.82
2022-11-20T11:39:51.881Z,8.50
2022-11-20T11:42:25.889Z,10.45
2022-11-20T11:44:53.178Z,9.82
2022-11-20T11:47:34.177Z,11.23
2022-11-20T11:50:09.552Z,11.57
2022-11-20T11:53:17.501Z,10.02
2022-11-20T11:55:59.939Z,10.48
2022-11-20T11:58:46.863Z,8.75
2022-11-20T12:01:33.709Z,9.10
2022-11-20T12:04:26.822Z,10.25
2022-11-20T12:07:18.369Z,11.45
2022-11-20T12:09:52.850Z,11.15
2022-11-20T12:12:25.376Z,10.55
2022-11-20T12:14:55.741Z,11.02
2022-11-20T12:17:22.478Z,10.35
2022-11-20T12:19:49.079Z,11.60
2022-11-20T12:22:39.858Z,10.38
2022-11-20T12:25:15.079Z,11.52
2022-11-20T12:27:56.919Z,10.65
2022-11-20T12:30:23.916Z,10.38
2022-11-20T12:33:14.124Z,11.98
2022-11-20T12:35:40.380Z,10.18
2022-11-20T12:38:32.883Z,11.60
2022-11-20T12:41:23.501Z,10.48
2022-11-20T12:44:21.020Z,12.70
2022-11-20T12:46:57.900Z,11.43
2022-11-20T12:49:33.252Z,11.27
2022-11-20T12:55:04.714Z,10.43
2022-11-20T12:57:49.932Z,11.75
2022-11-20T13:00:20.463Z,10.77
2022-11-20T13:03:14.732Z,11.80
2022-11-20T13:06:00.700Z,12.65
2022-11-20T13:08:30.884Z,14.35
2022-11-20T13:11:15.430Z,17.30
2022-11-20T13:13:51.081Z,15.55
2022-11-20T13:16:30.225Z,15.20
2022-11-20T13:18:56.807Z,12.35
2022-11-20T13:21:37.604Z,12.00
2022-11-20T13:24:22.761Z,11.88
2022-11-20T13:26:49.755Z,12.75
2022-11-20T13:29:19.972Z,11.93
2022-11-20T13:31:48.203Z,13.38
2022-11-20T13:34:26.589Z,14.48
2022-11-20T13:36:58.627Z,11.95
2022-11-20T13:39:27.279Z,11.75
2022-11-20T13:42:02.159Z,13.05
2022-11-20T13:44:39.419Z,11.05
2022-11-20T13:47:23.521Z,13.00
2022-11-20T13:49:50.195Z,10.52
2022-11-20T13:52:36.716Z,12.23
2022-11-20T13:55:09.252Z,10.82
2022-11-20T13:57:41.496Z,11.27
2022-11-20T14:00:18.526Z,10.80
2022-11-20T14:02:47.800Z,11.98
2022-11-20T14:05:21.396Z,9.85
2022-11-20T14:07:49.427Z,10.35
2022-11-20T14:10:32.060Z,10.23
2022-11-20T14:12:59.644Z,9.60
2022-11-20T14:15:30.448Z,9.65
2022-11-20T14:17:57.409Z,9.23
2022-11-20T14:20:29.835Z,11.25
2022-11-20T14:22:56.636Z,11.43
2022-11-20T14:25:26.650Z,8.48
2022-11-20T14:27:56.133Z,8.93
2022-11-20T14:30:47.474Z,9.45
2022-11-20T14:33:15.530Z,8.02
2022-11-20T14:35:46.866Z,8.52
2022-11-20T14:38:17.214Z,10.00
2022-11-20T14:40:44.142Z,10.13
2022-11-20T14:43:18.883Z,9.77
2022-11-20T14:45:49.719Z,9.65
2022-11-20T14:48:17.015Z,9.55
2022-11-20T14:50:43.300Z,10.48
2022-11-20T14:53:09.847Z,9.68
2022-11-20T14:55:38.536Z,10.85
2022-11-20T14:58:22.924Z,9.57
2022-11-20T15:01:26.161Z,10.18
2022-11-20T15:04:01.277Z,10.52
2022-11-20T15:06:27.941Z,10.43
2022-11-20T15:08:54.467Z,9.57
2022-11-20T15:11:30.728Z,9.88
2022-11-20T15:13:57.863Z,10.77
2022-11-20T15:16:24.622Z,9.85
2022-11-20T15:18:51.453Z,9.80
2022-11-20T15:21:19.966Z,10.27
2022-11-20T15:23:46.375Z,8.85
2022-11-20T15:26:19.833Z,10.10
2022-11-20T15:28:48.325Z,10.35
2022-11-20T15:31:17.457Z,9.75
2022-11-20T15:33:46.209Z,9.55
2022-11-20T15:36:12.533Z,10.27
2022-11-20T15:38:39.168Z,9.65
2022-11-20T15:41:05.850Z,9.38
2022-11-20T15:43:32.287Z,11.60
2022-11-20T15:46:14.403Z,10.60
2022-11-20T15:48:48.511Z,10.35
2022-11-20T15:51:21.200Z,9.60
2022-11-20T15:53:47.909Z,9.20
2022-11-20T15:56:15.351Z,19.70
2022-11-20T15:58:42.125Z,19.17
2022-11-20T16:01:14.272Z,16.52
2022-11-20T16:03:41.994Z,15.18
2022-11-20T16:06:08.767Z,13.63
2022-11-20T16:08:35.171Z,13.82
2022-11-20T16:11:01.698Z,13.57
2022-11-20T16:13:28.393Z,15.07
2022-11-20T16:15:59.206Z,14.15
2022-11-20T16:18:25.974Z,12.60
2022-11-20T16:20:54.249Z,13.40
2022-11-20T16:23:21.484Z,11.90
2022-11-20T16:25:48.804Z,12.85
2022-11-20T16:28:18.885Z,15.95
2022-11-20T16:30:46.153Z,14.07
2022-11-20T16:33:15.459Z,12.73
2022-11-20T16:35:42.393Z,14.32
2022-11-20T16:38:08.743Z,14.73
2022-11-20T16:40:35.247Z,13.60
2022-11-20T16:43:10.802Z,14.32
2022-11-20T16:45:44.870Z,14.18
2022-11-20T16:48:16.121Z,14.80
2022-11-20T16:50:48.134Z,14.65
2022-11-20T16:53:14.566Z,14.65
2022-11-20T16:55:41.444Z,13.18
2022-11-20T16:58:07.873Z,11.02
2022-11-20T17:00:37.403Z,11.88
2022-11-20T17:03:05.448Z,11.20
2022-11-20T17:05:32.705Z,11.52
2022-11-20T17:07:59.109Z,13.13
2022-11-20T17:10:25.469Z,12.43
2022-11-20T17:12:51.899Z,15.20
2022-11-20T17:15:18.442Z,16.80
2022-11-20T17:17:44.778Z,15.32
2022-11-20T17:20:11.489Z,14.48
2022-11-20T17:22:38.367Z,14.10
2022-11-20T17:25:05.315Z,14.32
2022-11-20T17:27:31.946Z,12.93
2022-11-20T17:29:58.276Z,12.77
2022-11-20T17:32:24.825Z,12.10
2022-11-20T17:34:51.380Z,12.27
2022-11-20T17:37:17.684Z,10.43
2022-11-20T17:39:44.325Z,10.18
2022-11-20T17:42:10.757Z,9.43
2022-11-20T17:44:37.067Z,13.52
2022-11-20T17:47:03.526Z,12.30
2022-11-20T17:49:30.192Z,13.23
2022-11-20T17:51:56.564Z,13.88
2022-11-20T17:54:23.185Z,12.77
2022-11-20T17:56:49.576Z,12.27
2022-11-20T17:59:16.180Z,12.77
2022-11-20T18:01:42.597Z,11.82
2022-11-20T18:04:09.416Z,10.85
2022-11-20T18:06:35.946Z,11.75
2022-11-20T18:09:06.434Z,12.63
2022-11-20T18:11:35.568Z,12.00
2022-11-20T18:14:04.608Z,10.98
2022-11-20T18:16:42.149Z,11.25
2022-11-20T18:19:09.992Z,12.52
2022-11-20T18:21:36.595Z,11.02
2022-11-20T18:24:03.096Z,10.73
2022-11-20T18:26:29.534Z,11.40
2022-11-20T18:28:56.786Z,10.93
2022-11-20T18:31:23.286Z,10.18
2022-11-20T18:33:49.919Z,9.15
2022-11-20T18:36:17.525Z,10.02
2022-11-20T18:38:46.258Z,10.57
2022-11-20T18:41:18.045Z,9.40
2022-11-20T18:43:44.363Z,9.65
2022-11-20T18:46:10.812Z,8.98
2022-11-20T18:48:37.359Z,10.35
2022-11-20T18:51:07.771Z,10.23
2022-11-20T18:53:37.682Z,9.50
2022-11-20T18:56:06.062Z,9.60
2022-11-20T18:58:33.042Z,10.23
2022-11-20T19:01:07.383Z,10.07
2022-11-20T19:03:34.896Z,9.88
2022-11-20T19:06:01.496Z,10.63
2022-11-20T19:08:28.554Z,11.52
2022-11-20T19:10:55.395Z,10.00
2022-11-20T19:13:21.794Z,11.73
2022-11-20T19:15:48.320Z,10.48
2022-11-20T19:18:14.680Z,11.35
2022-11-20T19:20:41.084Z,9.63
2022-11-20T19:23:07.500Z,8.50
2022-11-20T19:25:37.890Z,11.10
2022-11-20T19:28:05.589Z,9.82
2022-11-20T19:30:33.296Z,12.18
2022-11-20T19:32:59.628Z,11.05
2022-11-20T19:35:26.353Z,10.73
2022-11-20T19:37:53.355Z,10.63
2022-11-20T19:40:20.111Z,11.63
2022-11-20T19:42:46.559Z,11.10
2022-11-20T19:45:12.977Z,12.88
2022-11-20T19:48:06.583Z,12.40
2022-11-20T19:50:26.303Z,11.82
2022-11-20T19:52:58.380Z,13.25
2022-11-20T19:55:25.377Z,11.88
2022-11-20T19:57:52.148Z,12.25
2022-11-20T20:00:25.646Z,12.40
2022-11-20T20:02:57.572Z,12.65
2022-11-20T20:05:23.966Z,12.30
2022-11-20T20:07:50.292Z,14.35
2022-11-20T20:10:17.083Z,13.30
2022-11-20T20:12:43.716Z,12.45
2022-11-20T20:15:10.192Z,12.90
2022-11-20T20:17:36.612Z,12.68
2022-11-20T20:20:03.435Z,11.68
2022-11-20T20:22:29.944Z,9.80
2022-11-20T20:24:56.240Z,11.13
2022-11-20T20:27:22.908Z,10.25
2022-11-20T20:29:49.213Z,10.85
2022-11-20T20:32:15.540Z,10.75
2022-11-20T20:34:42.438Z,10.40
2022-11-20T20:37:08.994Z,10.80
2022-11-20T20:39:35.365Z,11.52
2022-11-20T20:42:01.859Z,12.70
2022-11-20T20:44:28.201Z,12.13
2022-11-20T20:46:54.557Z,10.50
2022-11-20T20:49:21.245Z,11.55
2022-11-20T20:51:48.130Z,11.98
2022-11-20T20:54:14.619Z,11.52
2022-11-20T20:56:40.927Z,9.88
2022-11-20T20:59:07.287Z,10.90
2022-11-20T21:01:33.938Z,11.15
2022-11-20T21:04:00.394Z,10.80
2022-11-20T21:06:26.844Z,10.68
2022-11-20T21:08:53.424Z,10.15
2022-11-20T21:11:20.589Z,11.52
2022-11-20T21:13:48.134Z,9.93
2022-11-20T21:16:16.021Z,9.13
2022-11-20T21:18:42.488Z,11.75
2022-11-20T21:21:12.783Z,10.65
2022-11-20T21:23:39.437Z,10.52
2022-11-20T21:26:08.877Z,11.32
2022-11-20T21:28:36.970Z,10.15
2022-11-20T21:31:15.320Z,9.73
2022-11-20T21:33:44.154Z,8.60
2022-11-20T21:36:12.915Z,8.65
2022-11-20T21:38:39.676Z,9.40
2022-11-20T21:41:08.103Z,8.98
2022-11-20T21:43:35.416Z,8.90
2022-11-20T21:46:10.186Z,9.82
2022-11-20T21:48:38.666Z,8.32
2022-11-20T21:51:09.788Z,7.97
2022-11-20T21:53:36.564Z,8.15
2022-11-20T21:56:04.000Z,8.63
2022-11-20T21:58:30.996Z,8.68
2022-11-20T22:00:58.206Z,8.02
2022-11-20T22:03:24.803Z,9.63
2022-11-20T22:05:57.912Z,8.38
2022-11-20T22:08:25.610Z,8.63
2022-11-20T22:10:59.156Z,8.18
2022-11-20T22:13:26.710Z,8.77
2022-11-20T22:16:00.779Z,7.18
2022-11-20T22:18:27.578Z,7.23
2022-11-20T22:20:53.927Z,8.35
2022-11-20T22:23:20.339Z,6.95
2022-11-20T22:25:46.668Z,7.65
2022-11-20T22:28:13.089Z,7.22
2022-11-20T22:30:39.515Z,7.97
2022-11-20T22:33:11.934Z,7.70
2022-11-20T22:35:39.843Z,7.68
2022-11-20T22:38:06.137Z,6.53
2022-11-20T22:40:32.543Z,4.88
2022-11-20T22:42:59.859Z,6.28
2022-11-20T22:45:26.170Z,6.32
2022-11-20T22:47:52.564Z,5.85
2022-11-20T22:50:18.954Z,6.82
2022-11-20T22:52:45.328Z,5.95
2022-11-20T22:55:16.142Z,3.42
2022-11-20T22:57:44.141Z,2.53
2022-11-20T23:00:11.116Z,2.67
2022-11-20T23:02:37.648Z,2.03
2022-11-20T23:05:04.376Z,2.10
2022-11-20T23:07:30.786Z,2.00
2022-11-20T23:09:57.251Z,1.95
2022-11-20T23:12:23.634Z,2.53
2022-11-20T23:14:49.937Z,1.92
2022-11-20T23:17:16.730Z,2.70
2022-11-20T23:19:43.123Z,2.28
2022-11-20T23:22:09.538Z,2.92
2022-11-20T23:24:35.843Z,1.70
2022-11-20T23:27:02.240Z,1.35
2022-11-20T23:29:28.671Z,1.38
2022-11-20T23:31:55.101Z,2.08
2022-11-20T23:34:21.469Z,1.65
2022-11-20T23:36:47.963Z,2.00
2022-11-20T23:39:14.362Z,2.05
2022-11-20T23:41:40.681Z,1.80
2022-11-20T23:44:07.257Z,1.60
2022-11-20T23:46:33.662Z,1.80
2022-11-20T23:49:00.336Z,1.40
2022-11-20T23:51:27.044Z,1.40
2022-11-20T23:53:53.452Z,1.27
2022-11-20T23:56:19.768Z,1.50
2022-11-20T23:58:46.115Z,1.30
